Time;durP1;ratioP1;P1;durP2;ratioP2;P2;SDS_P1;SDS_P2;PMS_P1;PMS_P2;Temp;Humidity;BMP_temperature;BMP_pressure;BME280_temperature;BME280_humidity;BME280_pressure;Samples;Min_cycle;Max_cycle;Signal;HPM_P1;HPM_P2
2022/12/30 00:02:09;;;;;;;32.67;11.88;;;;;;;6.71;100.00;98582.58;2188761;81;20976;-59
2022/12/30 00:05:10;;;;;;;32.40;12.80;;;;;;;6.69;100.00;98584.87;2188788;81;20975;-59
2022/12/30 00:11:15;;;;;;;32.55;11.95;;;;;;;6.58;100.00;98580.20;2172054;81;21000;-59
2022/12/30 00:35:39;;;;;;;30.05;11.40;;;;;;;6.23;100.00;98580.97;2172045;81;21012;-58
2022/12/30 00:38:41;;;;;;;33.30;11.93;;;;;;;6.24;100.00;98575.28;2189098;81;21466;-58
2022/12/30 00:44:47;;;;;;;33.50;12.63;;;;;;;6.16;100.00;98573.05;2171942;81;21059;-58
2022/12/30 00:47:49;;;;;;;31.80;12.13;;;;;;;6.19;100.00;98582.45;2189073;81;20989;-58
2022/12/30 00:56:57;;;;;;;31.80;11.95;;;;;;;6.29;100.00;98590.69;2171777;81;21051;-58
2022/12/30 00:59:58;;;;;;;31.30;11.85;;;;;;;6.34;100.00;98590.86;2188951;81;20984;-58
2022/12/30 01:03:00;;;;;;;30.52;12.75;;;;;;;6.33;100.00;98585.25;2188689;81;20981;-58
2022/12/30 01:06:01;;;;;;;34.38;13.05;;;;;;;6.37;100.00;98588.58;2188615;81;21007;-58
2022/12/30 01:09:03;;;;;;;39.48;14.75;;;;;;;6.40;100.00;98589.73;2188604;81;21036;-59
2022/12/30 01:15:07;;;;;;;38.83;14.60;;;;;;;6.43;100.00;98590.05;2172008;81;21606;-59
2022/12/30 01:18:09;;;;;;;35.98;13.10;;;;;;;6.47;100.00;98588.52;2188787;81;20953;-58
2022/12/30 01:21:10;;;;;;;33.33;12.37;;;;;;;6.45;100.00;98587.76;2188935;81;21440;-58
2022/12/30 01:24:12;;;;;;;31.57;11.95;;;;;;;6.34;100.00;98578.30;2188791;81;21440;-59
2022/12/30 01:27:13;;;;;;;32.23;11.95;;;;;;;6.42;100.00;98581.36;2188674;81;20953;-58
2022/12/30 01:30:15;;;;;;;38.25;12.88;;;;;;;6.42;100.00;98572.25;2188945;81;21028;-59
2022/12/30 01:33:16;;;;;;;36.75;13.08;;;;;;;6.44;100.00;98574.34;2188712;81;21033;-58
2022/12/30 01:36:17;;;;;;;36.83;13.22;;;;;;;6.46;100.00;98569.88;2188896;81;21487;-58
2022/12/30 01:39:19;;;;;;;35.43;12.50;;;;;;;6.46;100.00;98568.58;2188620;81;21036;-58
2022/12/30 01:42:20;;;;;;;36.03;13.48;;;;;;;6.45;100.00;98566.05;2188451;81;21024;-58
2022/12/30 01:45:22;;;;;;;34.58;13.22;;;;;;;6.49;100.00;98570.20;2188787;81;20933;-59
2022/12/30 01:48:24;;;;;;;33.30;12.17;;;;;;;6.50;100.00;98570.59;2188718;81;21000;-58
2022/12/30 01:51:26;;;;;;;32.63;11.53;;;;;;;6.53;100.00;98571.27;2188892;81;21192;-59
2022/12/30 01:54:28;;;;;;;32.80;11.80;;;;;;;6.56;100.00;98572.89;2188667;81;21563;-58
2022/12/30 01:57:31;;;;;;;34.20;12.10;;;;;;;6.46;100.00;98559.93;2188601;81;21516;-59
2022/12/30 02:00:32;;;;;;;32.58;11.25;;;;;;;6.46;100.00;98563.37;2188924;81;20937;-58
2022/12/30 02:03:34;;;;;;;37.55;11.20;;;;;;;6.48;100.00;98560.69;2188657;81;20977;-59
2022/12/30 02:06:35;;;;;;;30.82;10.72;;;;;;;6.44;100.00;98554.80;2188554;81;21023;-59
2022/12/30 02:09:36;;;;;;;33.25;10.35;;;;;;;6.42;100.00;98557.92;2188612;81;20984;-58
2022/12/30 02:12:38;;;;;;;32.08;10.15;;;;;;;6.49;100.00;98553.27;2188648;81;21547;-59
2022/12/30 02:15:39;;;;;;;36.70;11.17;;;;;;;6.57;100.00;98558.48;2189253;81;21503;-58
2022/12/30 02:18:41;;;;;;;27.52;9.20;;;;;;;6.59;100.00;98561.02;2188843;81;21039;-58
2022/12/30 02:21:42;;;;;;;29.15;10.40;;;;;;;6.57;100.00;98558.95;2188643;81;20937;-58
2022/12/30 02:24:44;;;;;;;28.73;10.10;;;;;;;6.58;100.00;98567.16;2188775;81;20937;-58
2022/12/30 02:27:45;;;;;;;27.85;9.60;;;;;;;6.59;100.00;98571.00;2188608;81;21028;-58
2022/12/30 02:30:47;;;;;;;32.15;10.08;;;;;;;6.64;100.00;98568.16;2188513;81;21578;-58
2022/12/30 02:33:48;;;;;;;26.17;8.78;;;;;;;6.61;100.00;98559.63;2188790;81;20949;-58
2022/12/30 02:36:49;;;;;;;26.87;9.08;;;;;;;6.57;100.00;98566.30;2188592;81;20972;-59
2022/12/30 02:39:51;;;;;;;27.42;9.35;;;;;;;6.62;100.00;98578.27;2188847;81;20995;-58
2022/12/30 02:45:56;;;;;;;30.90;9.93;;;;;;;6.69;100.00;98587.47;2117363;83;21046;-58
2022/12/30 02:48:57;;;;;;;29.95;9.48;;;;;;;6.58;100.00;98582.33;2143935;83;21002;-59
2022/12/30 02:55:02;;;;;;;29.70;13.13;;;;;;;6.52;100.00;98564.39;2097408;84;21004;-59
2022/12/30 02:58:04;;;;;;;28.53;10.27;;;;;;;6.62;100.00;98564.77;2121524;84;21282;-59
2022/12/30 03:04:09;;;;;;;29.98;10.13;;;;;;;6.49;100.00;98578.84;2097357;84;21029;-58
2022/12/30 03:07:10;;;;;;;42.53;18.10;;;;;;;6.51;100.00;98568.38;2121172;84;20997;-58
2022/12/30 03:13:15;;;;;;;44.00;14.63;;;;;;;6.55;100.00;98575.97;2097601;84;21523;-58
2022/12/30 03:16:17;;;;;;;36.28;12.58;;;;;;;6.62;100.00;98578.27;2121192;84;21135;-59
2022/12/30 03:19:18;;;;;;;63.78;19.30;;;;;;;6.64;100.00;98588.14;2121314;84;20981;-59
2022/12/30 03:28:26;;;;;;;31.33;9.73;;;;;;;6.64;100.00;98594.66;2097228;84;21057;-59
2022/12/30 03:31:28;;;;;;;32.70;10.13;;;;;;;6.66;100.00;98595.45;2121336;84;21570;-59
2022/12/30 03:34:29;;;;;;;26.95;9.08;;;;;;;6.53;100.00;98599.94;2121626;84;21097;-59
2022/12/30 03:37:31;;;;;;;25.57;9.00;;;;;;;6.58;100.00;98598.44;2121467;84;21049;-58
2022/12/30 03:40:32;;;;;;;24.90;8.90;;;;;;;6.52;100.00;98600.88;2121616;84;21037;-59
2022/12/30 03:43:34;;;;;;;33.45;10.93;;;;;;;6.50;100.00;98597.95;2114377;84;21101;-58
2022/12/30 03:46:36;;;;;;;25.80;8.90;;;;;;;6.53;100.00;98597.80;2111255;84;20998;-59
2022/12/30 03:49:38;;;;;;;23.92;8.75;;;;;;;6.58;100.00;98595.83;2111005;84;21024;-59
2022/12/30 03:52:39;;;;;;;24.00;8.10;;;;;;;6.66;100.00;98607.17;2127481;83;21543;-59
2022/12/30 03:55:41;;;;;;;25.45;8.90;;;;;;;6.67;100.00;98602.36;2127278;83;21136;-58
2022/12/30 03:58:42;;;;;;;23.80;8.60;;;;;;;6.68;100.00;98598.37;2127343;84;20985;-59
2022/12/30 04:01:44;;;;;;;24.10;8.48;;;;;;;6.71;100.00;98606.47;2127593;84;20984;-59
2022/12/30 04:04:45;;;;;;;25.77;8.65;;;;;;;6.66;100.00;98612.39;2127372;83;20993;-59
2022/12/30 04:07:47;;;;;;;28.53;10.17;;;;;;;6.70;100.00;98613.46;2127561;83;21534;-58
2022/12/30 04:10:48;;;;;;;25.37;8.83;;;;;;;6.74;100.00;98616.78;2127365;84;21036;-58
2022/12/30 04:13:51;;;;;;;28.00;8.93;;;;;;;6.74;100.00;98617.61;2127340;83;20992;-58
2022/12/30 04:16:53;;;;;;;25.32;8.38;;;;;;;6.78;100.00;98610.94;2127295;83;20977;-59
2022/12/30 04:19:54;;;;;;;24.98;8.90;;;;;;;6.82;100.00;98625.52;2127332;83;21080;-59
2022/12/30 04:22:56;;;;;;;27.10;8.40;;;;;;;6.82;100.00;98630.73;2127289;83;21068;-58
2022/12/30 04:25:57;;;;;;;26.00;9.00;;;;;;;6.87;100.00;98637.41;2127324;83;21043;-58
2022/12/30 04:28:58;;;;;;;26.82;8.35;;;;;;;6.86;100.00;98639.63;2127587;83;21008;-59
2022/12/30 04:32:00;;;;;;;24.37;8.15;;;;;;;6.87;100.00;98642.63;2127305;83;21048;-58
2022/12/30 04:35:01;;;;;;;24.55;8.38;;;;;;;6.83;100.00;98634.56;2127576;83;21479;-58
2022/12/30 04:38:03;;;;;;;24.18;8.80;;;;;;;6.86;100.00;98642.23;2127292;83;20988;-58
2022/12/30 04:41:04;;;;;;;25.30;8.48;;;;;;;6.74;100.00;98641.07;2127445;83;21470;-58
2022/12/30 04:44:06;;;;;;;26.55;9.03;;;;;;;6.72;100.00;98644.66;2132248;83;20988;-58
2022/12/30 04:47:07;;;;;;;25.17;8.60;;;;;;;6.68;100.00;98648.33;2134468;83;21080;-59
2022/12/30 04:50:10;;;;;;;24.15;8.70;;;;;;;6.63;100.00;98645.95;2134287;83;21741;-58
2022/12/30 04:53:12;;;;;;;25.45;9.23;;;;;;;6.68;100.00;98645.73;2134597;83;21116;-58
2022/12/30 04:56:13;;;;;;;24.50;8.93;;;;;;;6.66;100.00;98644.97;2134125;83;21005;-59
2022/12/30 04:59:15;;;;;;;25.92;9.48;;;;;;;6.64;100.00;98652.86;2134253;83;21566;-58
2022/12/30 05:02:16;;;;;;;28.17;9.58;;;;;;;6.65;100.00;98668.03;2134510;83;21041;-58
2022/12/30 05:05:18;;;;;;;29.02;9.78;;;;;;;6.62;100.00;98672.92;2133946;83;21091;-58
2022/12/30 05:08:19;;;;;;;29.50;9.65;;;;;;;6.62;100.00;98679.44;2134370;83;21045;-58
2022/12/30 05:11:20;;;;;;;27.45;10.10;;;;;;;6.63;100.00;98682.91;2134213;83;21128;-58
2022/12/30 05:14:22;;;;;;;25.00;9.43;;;;;;;6.56;100.00;98676.66;2134443;83;21482;-58
2022/12/30 05:17:24;;;;;;;27.65;9.68;;;;;;;6.55;100.00;98690.63;2134019;83;21121;-58
2022/12/30 05:20:25;;;;;;;27.37;9.95;;;;;;;6.55;100.00;98698.89;2134257;83;21559;-59
2022/12/30 05:26:30;;;;;;;29.12;10.55;;;;;;;6.61;100.00;98696.45;2108143;83;21032;-59
2022/12/30 05:29:31;;;;;;;27.50;10.18;;;;;;;6.62;100.00;98698.98;2134285;83;21017;-59
2022/12/30 05:32:33;;;;;;;30.75;10.48;;;;;;;6.68;100.00;98700.02;2134444;83;21036;-58
2022/12/30 05:35:35;;;;;;;28.55;10.20;;;;;;;6.75;100.00;98710.98;2134341;83;21061;-59
2022/12/30 05:38:36;;;;;;;28.12;9.88;;;;;;;6.71;100.00;98720.73;2134415;83;21064;-59
2022/12/30 05:41:37;;;;;;;25.30;10.30;;;;;;;6.69;100.00;98727.75;2134358;83;21084;-58
2022/12/30 05:44:39;;;;;;;28.40;10.50;;;;;;;6.71;100.00;98735.06;2134201;83;21120;-58
2022/12/30 05:47:40;;;;;;;26.23;10.45;;;;;;;6.63;100.00;98737.64;2134288;83;21093;-58
2022/12/30 05:50:42;;;;;;;30.37;10.27;;;;;;;6.64;100.00;98743.22;2134358;83;21631;-58
2022/12/30 05:53:43;;;;;;;26.42;9.80;;;;;;;6.71;100.00;98740.28;2134273;83;21418;-59
2022/12/30 05:56:45;;;;;;;27.77;10.35;;;;;;;6.72;100.00;98745.02;2134169;83;21060;-58
2022/12/30 05:59:46;;;;;;;30.75;10.85;;;;;;;6.73;100.00;98751.47;2134406;83;20977;-58
2022/12/30 06:02:48;;;;;;;26.50;10.28;;;;;;;6.75;100.00;98754.86;2134171;83;21075;-58
2022/12/30 06:05:49;;;;;;;27.40;10.80;;;;;;;6.77;100.00;98756.09;2134316;83;21563;-58
2022/12/30 06:08:51;;;;;;;28.90;11.57;;;;;;;6.76;100.00;98759.61;2134138;83;21061;-59
2022/12/30 06:11:52;;;;;;;36.65;14.18;;;;;;;6.76;100.00;98763.05;2134238;83;21639;-58
2022/12/30 06:14:53;;;;;;;31.12;11.65;;;;;;;6.77;100.00;98769.13;2134243;83;21052;-59
2022/12/30 06:17:55;;;;;;;29.12;11.30;;;;;;;6.80;100.00;98782.02;2134081;83;21060;-58
2022/12/30 06:20:56;;;;;;;28.67;10.60;;;;;;;6.76;100.00;98779.16;2134268;83;21096;-58
2022/12/30 06:23:58;;;;;;;29.17;11.30;;;;;;;6.74;100.00;98782.31;2134102;83;21036;-58
2022/12/30 06:26:59;;;;;;;29.37;11.43;;;;;;;6.72;100.00;98782.82;2134312;83;21752;-59
2022/12/30 06:30:01;;;;;;;27.57;10.70;;;;;;;6.67;100.00;98781.73;2134046;83;21020;-59
2022/12/30 06:33:03;;;;;;;28.70;11.25;;;;;;;6.67;100.00;98781.73;2134411;83;21618;-59
2022/12/30 06:36:04;;;;;;;29.63;11.33;;;;;;;6.71;100.00;98791.55;2134345;83;21091;-59
2022/12/30 06:39:07;;;;;;;30.45;10.90;;;;;;;6.72;100.00;98804.98;2133847;83;21099;-59
2022/12/30 06:42:09;;;;;;;30.23;11.08;;;;;;;6.64;100.00;98823.58;2108074;83;21024;-58
2022/12/30 06:45:10;;;;;;;31.97;12.67;;;;;;;6.62;100.00;98825.86;2134168;83;21076;-58
2022/12/30 06:48:12;;;;;;;31.80;11.45;;;;;;;6.62;100.00;98834.52;2134115;83;21139;-59
2022/12/30 06:51:13;;;;;;;30.25;11.68;;;;;;;6.67;100.00;98831.26;2134109;83;21100;-59
2022/12/30 06:54:14;;;;;;;35.30;12.93;;;;;;;6.70;100.00;98832.89;2134151;83;21033;-58
2022/12/30 06:57:16;;;;;;;31.15;12.30;;;;;;;6.61;100.00;98833.28;2134094;83;21551;-59
2022/12/30 07:00:17;;;;;;;57.35;21.00;;;;;;;6.62;100.00;98828.47;2134170;83;21080;-59
2022/12/30 07:03:19;;;;;;;33.35;15.23;;;;;;;6.59;100.00;98826.41;2134106;83;21044;-59
2022/12/30 07:06:20;;;;;;;32.57;13.70;;;;;;;6.63;100.00;98825.79;2134312;83;21112;-58
2022/12/30 07:09:22;;;;;;;38.00;16.23;;;;;;;6.68;100.00;98833.39;2134072;83;21303;-58
2022/12/30 07:12:23;;;;;;;40.43;15.68;;;;;;;6.69;100.00;98837.23;2133822;83;21028;-59
2022/12/30 07:15:25;;;;;;;32.37;13.40;;;;;;;6.73;100.00;98847.91;2134544;83;21053;-58
2022/12/30 07:18:26;;;;;;;33.18;12.78;;;;;;;6.58;100.00;98853.84;2134145;83;21037;-59
2022/12/30 07:21:28;;;;;;;33.08;13.90;;;;;;;6.50;100.00;98860.66;2134206;83;21563;-58
2022/12/30 07:24:29;;;;;;;34.63;14.60;;;;;;;6.52;100.00;98857.99;2134376;83;21052;-58
2022/12/30 07:27:31;;;;;;;33.80;14.33;;;;;;;6.52;100.00;98861.90;2134305;83;21537;-58
2022/12/30 07:30:33;;;;;;;35.78;15.65;;;;;;;6.60;100.00;98883.27;2134216;83;21064;-58
2022/12/30 07:33:34;;;;;;;36.83;16.17;;;;;;;6.60;100.00;98879.36;2134295;83;21147;-58
2022/12/30 07:36:36;;;;;;;37.78;16.42;;;;;;;6.59;100.00;98874.61;2134087;83;22254;-59
2022/12/30 07:39:38;;;;;;;37.75;16.23;;;;;;;6.62;100.00;98892.32;2133809;83;21027;-58
2022/12/30 07:42:40;;;;;;;51.28;19.57;;;;;;;6.62;100.00;98884.03;2134069;83;21572;-58
2022/12/30 07:45:42;;;;;;;43.63;17.60;;;;;;;6.63;100.00;98881.83;2138038;83;21085;-58
2022/12/30 07:48:43;;;;;;;58.55;23.80;;;;;;;6.59;100.00;98879.83;2137951;83;21760;-59
2022/12/30 07:51:44;;;;;;;54.20;17.92;;;;;;;6.66;100.00;98889.98;2138170;83;20981;-58
2022/12/30 07:54:46;;;;;;;39.00;16.00;;;;;;;6.69;100.00;98894.58;2138292;83;21076;-58
2022/12/30 07:57:47;;;;;;;41.02;16.67;;;;;;;6.72;100.00;98897.52;2138195;83;21467;-59
2022/12/30 08:00:49;;;;;;;40.52;15.10;;;;;;;6.71;100.00;98910.15;2137817;83;21123;-59
2022/12/30 08:03:50;;;;;;;38.35;16.90;;;;;;;6.68;100.00;98912.89;2138073;83;21506;-58
2022/12/30 08:06:52;;;;;;;44.42;20.37;;;;;;;6.63;100.00;98918.78;2143901;83;21007;-58
2022/12/30 08:09:54;;;;;;;39.07;17.87;;;;;;;6.62;100.00;98927.51;2144041;83;21551;-58
2022/12/30 08:12:55;;;;;;;39.98;16.87;;;;;;;6.59;100.00;98937.16;2143839;83;20987;-58
2022/12/30 08:15:57;;;;;;;43.23;19.90;;;;;;;6.59;100.00;98946.29;2143728;83;21134;-58
2022/12/30 08:18:58;;;;;;;42.45;19.50;;;;;;;6.63;100.00;98956.58;2143998;83;21287;-59
2022/12/30 08:22:00;;;;;;;44.05;19.15;;;;;;;6.68;100.00;98957.21;2143874;83;20988;-58
2022/12/30 08:25:01;;;;;;;44.75;20.05;;;;;;;6.73;100.00;98961.31;2143880;83;21483;-58
2022/12/30 08:28:03;;;;;;;40.30;18.23;;;;;;;6.81;100.00;98971.44;2143683;83;21047;-58
2022/12/30 08:31:04;;;;;;;37.75;16.52;;;;;;;6.86;100.00;98973.83;2143854;83;21279;-58
2022/12/30 08:34:06;;;;;;;36.10;15.00;;;;;;;6.97;100.00;98975.95;2143996;83;21053;-59
2022/12/30 08:37:07;;;;;;;36.35;16.37;;;;;;;7.07;100.00;98985.09;2143839;83;21038;-59
2022/12/30 08:40:09;;;;;;;54.33;24.00;;;;;;;7.18;100.00;98990.66;2144374;83;21027;-58
2022/12/30 08:43:12;;;;;;;41.53;19.23;;;;;;;7.30;100.00;99003.64;2143359;83;21254;-59
2022/12/30 08:46:14;;;;;;;47.13;21.23;;;;;;;7.39;100.00;99005.81;2181832;82;21033;-58
2022/12/30 08:49:16;;;;;;;63.63;27.32;;;;;;;7.44;100.00;99006.47;2182108;82;20989;-59
2022/12/30 08:52:17;;;;;;;52.53;25.57;;;;;;;7.46;100.00;99016.37;2182413;82;21035;-59
2022/12/30 08:55:18;;;;;;;46.10;21.15;;;;;;;7.46;100.00;99016.37;2182151;82;21569;-58
2022/12/30 08:58:20;;;;;;;52.73;21.47;;;;;;;7.46;100.00;99025.98;2182265;82;20977;-59
2022/12/30 09:01:21;;;;;;;37.73;16.77;;;;;;;7.53;100.00;99022.17;2182041;82;21524;-59
2022/12/30 09:04:23;;;;;;;37.88;15.48;;;;;;;7.62;100.00;99016.98;2182273;82;21040;-59
2022/12/30 09:07:24;;;;;;;34.85;14.03;;;;;;;7.67;100.00;99020.25;2182002;82;21015;-59
2022/12/30 09:10:26;;;;;;;34.55;14.68;;;;;;;7.75;100.00;99023.33;2182127;82;21004;-59
2022/12/30 09:13:27;;;;;;;33.70;14.70;;;;;;;7.81;100.00;99027.42;2182027;82;20961;-59
2022/12/30 09:16:29;;;;;;;41.63;19.17;;;;;;;7.75;100.00;99034.24;2182184;81;21471;-59
2022/12/30 09:19:30;;;;;;;33.95;14.45;;;;;;;7.81;100.00;99030.03;2182250;82;20972;-58
2022/12/30 09:22:31;;;;;;;30.08;12.73;;;;;;;7.69;100.00;99031.92;2181949;82;20968;-59
2022/12/30 09:25:33;;;;;;;35.52;14.90;;;;;;;7.64;100.00;99042.55;2182120;82;20969;-58
2022/12/30 09:28:35;;;;;;;33.58;14.58;;;;;;;7.58;100.00;99039.76;2181935;82;21016;-59
2022/12/30 09:31:36;;;;;;;32.30;13.60;;;;;;;7.46;100.00;99040.33;2182341;82;20993;-59
2022/12/30 09:34:38;;;;;;;32.58;14.15;;;;;;;7.43;100.00;99041.78;2182240;82;21005;-59
2022/12/30 09:37:40;;;;;;;33.18;14.10;;;;;;;7.42;100.00;99045.30;2182254;82;20980;-59
2022/12/30 09:40:42;;;;;;;35.80;13.68;;;;;;;7.51;100.00;99037.51;2182222;82;21028;-59
2022/12/30 09:43:43;;;;;;;31.33;12.87;;;;;;;7.62;100.00;99045.70;2182266;81;21520;-59
2022/12/30 09:46:45;;;;;;;31.50;13.23;;;;;;;7.84;100.00;99041.64;2188483;81;21005;-58
2022/12/30 09:49:47;;;;;;;34.27;13.00;;;;;;;8.08;100.00;99038.81;2188498;81;21725;-59
2022/12/30 09:52:49;;;;;;;;;;;;;;;8.25;100.00;99038.02;2191388;81;21004;-59
2022/12/30 09:55:51;;;;;;;35.43;14.00;;;;;;;8.38;100.00;99037.80;2188500;81;21053;-59
2022/12/30 09:58:53;;;;;;;35.48;13.65;;;;;;;8.54;100.00;99034.47;2189046;81;21031;-59
2022/12/30 10:01:54;;;;;;;31.50;12.70;;;;;;;8.58;100.00;99034.23;2188782;81;20985;-59
2022/12/30 10:04:55;;;;;;;31.42;12.30;;;;;;;8.53;100.00;99033.61;2188447;81;21460;-58
2022/12/30 10:07:57;;;;;;;35.20;13.03;;;;;;;8.49;100.00;99040.77;2188860;81;21047;-59
2022/12/30 10:10:58;;;;;;;33.95;13.22;;;;;;;8.34;100.00;99041.47;2188617;81;21298;-58
2022/12/30 10:14:00;;;;;;;34.90;13.45;;;;;;;8.31;100.00;99042.94;2188887;81;20968;-59
2022/12/30 10:17:01;;;;;;;32.55;13.08;;;;;;;8.38;100.00;99038.27;2188611;81;20941;-58
2022/12/30 10:20:03;;;;;;;33.90;13.28;;;;;;;8.45;100.00;99044.45;2188688;81;21495;-58
2022/12/30 10:23:04;;;;;;;33.17;12.37;;;;;;;8.63;100.00;99043.16;2188529;81;21091;-59
2022/12/30 10:26:06;;;;;;;31.68;12.07;;;;;;;8.74;100.00;99041.33;2188629;81;21164;-59
2022/12/30 10:29:07;;;;;;;33.47;12.53;;;;;;;8.87;100.00;99041.09;2189082;81;21032;-59
2022/12/30 10:32:09;;;;;;;31.25;12.85;;;;;;;8.95;100.00;99052.46;2188558;81;21040;-58
2022/12/30 10:35:11;;;;;;;30.97;12.25;;;;;;;8.91;100.00;99050.95;2188510;81;21492;-59
2022/12/30 10:38:12;;;;;;;30.95;12.33;;;;;;;8.94;100.00;99049.48;2188829;81;21083;-59
2022/12/30 10:41:14;;;;;;;34.27;13.70;;;;;;;9.04;100.00;99042.85;2188870;81;21052;-59
2022/12/30 10:44:15;;;;;;;34.60;13.35;;;;;;;9.05;100.00;99045.86;2185273;81;21000;-59
2022/12/30 10:47:17;;;;;;;30.43;11.43;;;;;;;9.09;100.00;99046.06;2171829;81;21131;-59
2022/12/30 10:50:19;;;;;;;35.50;13.95;;;;;;;9.23;100.00;99036.20;2172369;81;21024;-58
2022/12/30 10:53:20;;;;;;;34.92;13.35;;;;;;;9.30;100.00;99041.49;2172333;82;21054;-59
2022/12/30 10:56:22;;;;;;;34.73;14.05;;;;;;;9.46;100.00;99041.53;2171994;81;21540;-59
2022/12/30 10:59:23;;;;;;;34.25;13.30;;;;;;;9.63;100.00;99044.56;2172169;81;21025;-59
2022/12/30 11:02:24;;;;;;;31.05;13.18;;;;;;;9.73;100.00;99042.78;2172040;81;21041;-59
2022/12/30 11:05:26;;;;;;;31.20;13.40;;;;;;;9.73;100.00;99042.30;2172139;82;21065;-59
2022/12/30 11:08:27;;;;;;;34.63;14.07;;;;;;;9.70;100.00;99046.40;2172019;81;21104;-59
2022/12/30 11:14:42;;;;;;;32.83;14.10;;;;;;;9.80;100.00;99036.28;2172254;81;21432;-58
2022/12/30 11:17:36;;;;;;;32.53;13.30;;;;;;;9.77;100.00;99024.19;2161722;82;20972;-59
2022/12/30 11:20:37;;;;;;;32.33;13.43;;;;;;;9.82;100.00;99026.07;2172148;81;21052;-58
2022/12/30 11:23:39;;;;;;;28.83;11.97;;;;;;;9.91;100.00;99026.02;2172279;81;21048;-59
2022/12/30 11:26:41;;;;;;;30.05;12.45;;;;;;;10.06;100.00;99042.22;2172083;82;21084;-59
2022/12/30 11:29:42;;;;;;;33.40;12.63;;;;;;;10.29;100.00;99033.54;2172107;81;21040;-59
2022/12/30 11:32:44;;;;;;;29.98;11.25;;;;;;;10.49;100.00;99049.48;2172025;81;21032;-59
2022/12/30 11:35:45;;;;;;;32.98;14.43;;;;;;;10.27;100.00;99056.39;2172240;81;21096;-59
2022/12/30 11:38:49;;;;;;;32.58;12.85;;;;;;;10.09;100.00;99049.08;2172029;81;21053;-59
2022/12/30 11:41:51;;;;;;;30.70;12.25;;;;;;;10.06;100.00;99047.94;2172116;81;21526;-59
2022/12/30 11:44:53;;;;;;;27.48;9.48;;;;;;;9.76;100.00;99056.53;2177466;81;21016;-59
2022/12/30 11:47:54;;;;;;;25.82;8.60;;;;;;;9.61;100.00;99050.80;2188686;81;21011;-59
2022/12/30 11:50:56;;;;;;;31.00;10.15;;;;;;;9.66;100.00;99043.08;2188806;81;20987;-59
2022/12/30 11:53:57;;;;;;;26.10;8.53;;;;;;;9.85;100.00;99035.54;2188647;81;21067;-59
2022/12/30 11:56:59;;;;;;;23.18;8.28;;;;;;;9.97;100.00;99040.56;2188756;81;21538;-59
2022/12/30 12:00:00;;;;;;;25.97;8.33;;;;;;;10.04;100.00;99035.37;2188904;81;20976;-59
2022/12/30 12:03:02;;;;;;;25.65;8.88;;;;;;;10.13;100.00;99038.80;2144070;83;21534;-59
2022/12/30 12:06:04;;;;;;;24.25;7.62;;;;;;;10.17;100.00;99040.77;2143647;83;21126;-59
2022/12/30 12:09:05;;;;;;;27.30;7.70;;;;;;;10.15;100.00;99039.55;2144317;83;21593;-59
2022/12/30 12:12:07;;;;;;;25.55;7.40;;;;;;;10.26;100.00;99036.78;2144114;83;21091;-59
2022/12/30 12:15:08;;;;;;;21.20;6.40;;;;;;;10.20;100.00;99041.46;2144393;83;21052;-58
2022/12/30 12:18:10;;;;;;;24.67;6.83;;;;;;;10.22;100.00;99042.69;2143958;83;21116;-59
2022/12/30 12:21:12;;;;;;;23.65;7.17;;;;;;;10.15;100.00;99044.80;2144137;83;21068;-59
2022/12/30 12:24:16;;;;;;;23.07;6.65;;;;;;;10.16;100.00;99049.59;2143902;83;21039;-59
2022/12/30 12:27:17;;;;;;;25.68;7.78;;;;;;;10.13;100.00;99050.59;2117757;83;21033;-59
2022/12/30 12:30:18;;;;;;;24.82;6.95;;;;;;;10.10;100.00;99046.84;2144166;83;20995;-59
2022/12/30 12:33:20;;;;;;;22.52;6.53;;;;;;;10.19;100.00;99048.94;2143831;83;20967;-59
2022/12/30 12:36:21;;;;;;;23.62;6.53;;;;;;;10.17;100.00;99046.02;2144166;83;21363;-59
2022/12/30 12:39:23;;;;;;;27.10;6.65;;;;;;;10.16;100.00;99045.66;2144217;83;20967;-59
2022/12/30 12:42:24;;;;;;;25.30;7.30;;;;;;;10.19;100.00;99050.25;2144199;83;21064;-59
2022/12/30 12:45:26;;;;;;;24.70;7.57;;;;;;;10.31;100.00;99057.05;2140968;83;21063;-59
2022/12/30 12:48:27;;;;;;;24.70;7.42;;;;;;;10.40;100.00;99052.17;2137409;83;21036;-59
2022/12/30 12:51:29;;;;;;;25.70;6.78;;;;;;;10.49;100.00;99059.14;2137124;83;21046;-59
2022/12/30 12:54:30;;;;;;;21.57;6.03;;;;;;;10.48;100.00;99053.03;2137365;83;20987;-59
2022/12/30 12:57:32;;;;;;;24.47;6.28;;;;;;;10.35;100.00;99049.42;2137236;83;21011;-59
2022/12/30 13:00:34;;;;;;;25.43;7.00;;;;;;;10.24;100.00;99053.91;2137633;83;21008;-59
2022/12/30 13:03:36;;;;;;;23.80;7.70;;;;;;;10.18;100.00;99051.17;2137164;83;21047;-59
2022/12/30 13:06:37;;;;;;;25.52;7.00;;;;;;;10.19;100.00;99042.86;2137520;83;21011;-59
2022/12/30 13:09:39;;;;;;;25.43;7.05;;;;;;;10.13;100.00;99048.42;2137304;83;20996;-59
2022/12/30 13:12:40;;;;;;;22.75;6.65;;;;;;;10.21;100.00;99037.05;2137373;83;21431;-59
2022/12/30 13:15:42;;;;;;;23.87;7.05;;;;;;;10.14;100.00;99054.92;2137073;83;20984;-59
2022/12/30 13:18:43;;;;;;;20.65;6.35;;;;;;;10.16;100.00;99051.73;2137474;83;21483;-59
2022/12/30 13:21:45;;;;;;;22.90;6.83;;;;;;;10.20;100.00;99047.15;2137090;83;20993;-59
2022/12/30 13:24:48;;;;;;;21.17;6.35;;;;;;;10.15;100.00;99048.72;2137219;83;21571;-59
2022/12/30 13:27:50;;;;;;;24.50;6.80;;;;;;;10.09;100.00;99047.77;2137065;83;21043;-59
2022/12/30 13:30:51;;;;;;;23.13;7.73;;;;;;;10.07;100.00;99050.95;2137215;83;21056;-59
2022/12/30 13:33:53;;;;;;;26.90;8.55;;;;;;;10.16;100.00;99042.56;2137069;83;20996;-59
2022/12/30 13:36:54;;;;;;;31.67;10.10;;;;;;;10.15;100.00;99036.09;2137478;83;21459;-58
2022/12/30 13:39:56;;;;;;;31.47;10.67;;;;;;;10.12;100.00;99037.58;2182284;82;20945;-58
2022/12/30 13:42:57;;;;;;;29.87;9.35;;;;;;;10.15;100.00;99030.38;2182137;82;21495;-58
2022/12/30 13:46:01;;;;;;;27.00;9.70;;;;;;;10.17;100.00;99023.29;2185603;81;21004;-58
2022/12/30 13:49:02;;;;;;;29.55;10.30;;;;;;;10.19;100.00;99016.65;2117765;83;21089;-59
2022/12/30 13:52:03;;;;;;;32.58;11.93;;;;;;;10.22;100.00;99019.92;2121453;84;21575;-58
2022/12/30 13:55:05;;;;;;;29.98;10.15;;;;;;;10.24;100.00;99021.14;2121198;84;21052;-59
2022/12/30 13:58:08;;;;;;;25.23;8.48;;;;;;;10.26;100.00;99015.37;2121252;84;21525;-59
2022/12/30 14:01:09;;;;;;;27.45;8.33;;;;;;;10.23;100.00;99015.07;2121335;84;21056;-59
2022/12/30 14:04:11;;;;;;;26.45;9.58;;;;;;;10.16;100.00;99018.97;2121606;84;21073;-59
2022/12/30 14:07:12;;;;;;;28.30;10.40;;;;;;;10.14;100.00;99025.22;2121304;84;20981;-58
2022/12/30 14:10:14;;;;;;;35.97;12.17;;;;;;;10.00;100.00;99038.64;2121354;84;21586;-59
2022/12/30 14:13:15;;;;;;;43.28;18.17;;;;;;;9.92;100.00;99046.06;2121403;84;21024;-59
2022/12/30 14:16:17;;;;;;;93.40;42.13;;;;;;;9.84;100.00;99043.88;2121119;84;21088;-59
2022/12/30 14:19:18;;;;;;;76.15;34.30;;;;;;;9.70;100.00;99043.30;2121437;84;20981;-59
2022/12/30 14:22:20;;;;;;;55.63;27.07;;;;;;;9.60;100.00;99042.11;2121168;84;21076;-59
2022/12/30 14:25:22;;;;;;;67.85;30.65;;;;;;;9.47;100.00;99047.63;2121451;84;21049;-59
2022/12/30 14:28:23;;;;;;;34.20;11.65;;;;;;;9.42;100.00;99048.33;2121217;84;21044;-59
2022/12/30 14:31:24;;;;;;;28.50;10.13;;;;;;;9.30;100.00;99045.89;2121428;84;20985;-59
2022/12/30 14:34:26;;;;;;;30.32;11.10;;;;;;;9.16;100.00;99046.59;2121208;84;20971;-59
2022/12/30 14:37:27;;;;;;;28.67;9.58;;;;;;;9.00;100.00;99040.84;2121186;84;21507;-59
2022/12/30 14:40:29;;;;;;;26.02;7.80;;;;;;;8.77;100.00;99045.93;2121215;84;20969;-59
2022/12/30 14:43:30;;;;;;;33.65;8.18;;;;;;;8.68;100.00;99050.33;2121566;84;21021;-59
2022/12/30 14:49:35;;;;;;;32.42;11.03;;;;;;;8.13;100.00;99064.24;2091936;84;21052;-58
2022/12/30 14:52:36;;;;;;;36.77;12.37;;;;;;;7.96;100.00;99061.14;2127412;83;21864;-59
2022/12/30 14:55:40;;;;;;;67.37;23.50;;;;;;;7.71;100.00;99058.80;2099463;84;21025;-59
2022/12/30 14:58:41;;;;;;;32.00;11.10;;;;;;;7.49;100.00;99064.15;2127255;84;21028;-59
2022/12/30 15:01:45;;;;;;;66.17;25.50;;;;;;;7.33;100.00;99067.89;2127290;84;21615;-59